EDDS/STR METAR and TAF weather

Enter ICAO airport designator
Station Type Date Time Source
EDDS METAR 2018/12/10 18:20 UTC NOAA

EDDS 101820Z 26011KT 9999 FEW025 SCT044 04/01 Q1021 NOSIG


Station Type Date Time Source
EDDS Decoded METAR 2018/12/10 18:20 UTC NOAA

Stuttgart-Echterdingen, Germany (EDDS) 48-41N 009-13E 391M
Dec 10, 2018 - 01:20 PM EST / 2018.12.10 1820 UTC
Wind: from the W (260 degrees) at 13 MPH (11 KT):0
Visibility: greater than 7 mile(s):0
Sky conditions: partly cloudy
Temperature: 39 F (4 C)
Dew Point: 33 F (1 C)
Relative Humidity: 80%
Pressure (altimeter): 30.15 in. Hg (1021 hPa)
ob: EDDS 101820Z 26011KT 9999 FEW025 SCT044 04/01 Q1021 NOSIG
cycle: 18

Station Type Date Time Source
EDDS TAF 2018/12/10 18:30 UTC NOAA

TAF EDDS 101700Z 1018/1118 25008KT 9999 SCT040 PROB30
TEMPO 1018/1021 29015G25KT SHRASN BKN020TCU PROB30
TEMPO 1110/1118 4000 -SHSNRA BKN012 BKN020CB


Example: see airport list